createdAt,value
2023-07-28T00:00:28.690Z,75.00
2023-07-28T00:02:56.601Z,74.70
2023-07-28T00:05:24.500Z,75.00
2023-07-28T00:07:53.732Z,74.70
2023-07-28T00:10:21.594Z,75.00
2023-07-28T00:12:49.434Z,74.90
2023-07-28T00:15:17.264Z,75.20
2023-07-28T00:17:45.531Z,75.10
2023-07-28T00:20:14.030Z,74.90
2023-07-28T00:22:41.867Z,74.60
2023-07-28T00:25:11.552Z,74.40
2023-07-28T00:27:39.381Z,74.10
2023-07-28T00:30:08.408Z,73.60
2023-07-28T00:32:36.280Z,73.70
2023-07-28T00:35:04.227Z,73.60
2023-07-28T00:37:32.088Z,73.90
2023-07-28T00:39:59.893Z,73.60
2023-07-28T00:42:29.075Z,73.60
2023-07-28T00:44:56.935Z,73.60
2023-07-28T00:47:24.927Z,73.80
2023-07-28T00:49:52.804Z,73.70
2023-07-28T00:52:20.621Z,73.80
2023-07-28T00:54:48.476Z,73.90
2023-07-28T00:57:16.553Z,74.40
2023-07-28T00:59:48.675Z,74.80
2023-07-28T01:02:17.412Z,74.70
2023-07-28T01:04:45.665Z,75.30
2023-07-28T01:07:19.544Z,75.70
2023-07-28T01:09:55.383Z,76.00
2023-07-28T01:12:23.846Z,76.10
2023-07-28T01:14:53.028Z,75.70
2023-07-28T01:17:21.123Z,76.00
2023-07-28T01:19:49.016Z,75.90
2023-07-28T01:22:37.939Z,76.40
2023-07-28T01:25:16.502Z,76.60
2023-07-28T01:27:46.688Z,77.30
2023-07-28T01:30:15.045Z,78.00
2023-07-28T01:32:42.950Z,78.40
2023-07-28T01:35:11.274Z,79.10
2023-07-28T01:37:39.136Z,80.10
2023-07-28T01:40:08.338Z,81.10
2023-07-28T01:42:36.138Z,81.90
2023-07-28T01:45:06.978Z,82.50
2023-07-28T01:47:34.867Z,82.60
2023-07-28T01:50:02.803Z,83.70
2023-07-28T01:52:30.637Z,84.60
2023-07-28T01:54:58.474Z,84.70
2023-07-28T01:57:28.304Z,85.30
2023-07-28T01:59:56.274Z,85.80
2023-07-28T02:02:25.519Z,85.50
2023-07-28T02:04:53.370Z,85.30
2023-07-28T02:07:21.207Z,85.70
2023-07-28T02:09:49.052Z,86.10
2023-07-28T02:12:16.888Z,86.50
2023-07-28T02:14:44.720Z,87.00
2023-07-28T02:17:12.570Z,87.00
2023-07-28T02:19:41.796Z,87.60
2023-07-28T02:22:09.634Z,88.50
2023-07-28T02:24:37.732Z,88.80
2023-07-28T02:27:05.882Z,88.50
2023-07-28T02:29:33.725Z,88.10
2023-07-28T02:32:01.555Z,88.00
2023-07-28T02:34:29.400Z,88.00
2023-07-28T02:36:59.982Z,88.30
2023-07-28T02:39:27.908Z,88.50
2023-07-28T02:41:55.718Z,88.70
2023-07-28T02:44:23.642Z,88.10
2023-07-28T02:46:51.530Z,88.00
2023-07-28T02:49:19.370Z,88.30
2023-07-28T02:51:47.217Z,87.00
2023-07-28T02:54:16.402Z,86.00
2023-07-28T02:56:44.202Z,85.00
2023-07-28T02:59:12.532Z,84.10
2023-07-28T03:01:40.865Z,82.80
2023-07-28T03:04:08.923Z,81.70
2023-07-28T03:06:36.994Z,81.50
2023-07-28T03:09:05.177Z,81.30
2023-07-28T03:11:34.393Z,81.10
2023-07-28T03:14:02.269Z,81.20
2023-07-28T03:16:30.125Z,81.20
2023-07-28T03:18:58.043Z,81.30
2023-07-28T03:21:26.051Z,81.20
2023-07-28T03:23:53.904Z,81.00
2023-07-28T03:26:21.838Z,81.20
2023-07-28T03:28:51.199Z,80.90
2023-07-28T03:31:19.134Z,80.50
2023-07-28T03:33:47.088Z,80.40
2023-07-28T03:36:14.934Z,80.60
2023-07-28T03:38:42.753Z,81.00
2023-07-28T03:41:10.739Z,81.10
2023-07-28T03:43:38.657Z,81.10
2023-07-28T03:46:07.937Z,80.90
2023-07-28T03:48:35.776Z,81.10
2023-07-28T03:53:38.257Z,81.40
2023-07-28T03:56:07.106Z,82.10
2023-07-28T03:58:34.934Z,82.50
2023-07-28T04:01:01.952Z,83.20
2023-07-28T04:03:31.196Z,82.60
2023-07-28T04:05:59.049Z,83.50
2023-07-28T04:08:26.897Z,83.20
2023-07-28T04:10:54.697Z,83.70
2023-07-28T04:13:22.530Z,83.40
2023-07-28T04:15:50.402Z,83.10
2023-07-28T04:18:19.110Z,82.90
2023-07-28T04:20:48.287Z,82.20
2023-07-28T04:23:16.151Z,81.80
2023-07-28T04:25:44.007Z,81.70
2023-07-28T04:28:11.992Z,80.00
2023-07-28T04:30:39.860Z,79.30
2023-07-28T04:33:07.757Z,79.10
2023-07-28T04:35:35.820Z,79.10
2023-07-28T04:38:04.989Z,79.00
2023-07-28T04:40:32.812Z,78.60
2023-07-28T04:43:00.632Z,78.50
2023-07-28T04:45:29.561Z,78.30
2023-07-28T04:47:57.455Z,78.00
2023-07-28T04:50:25.310Z,77.90
2023-07-28T04:52:53.127Z,77.50
2023-07-28T04:55:22.460Z,77.50
2023-07-28T04:57:50.265Z,77.50
2023-07-28T05:00:18.551Z,77.40
2023-07-28T05:02:46.424Z,77.30
2023-07-28T05:05:14.322Z,77.40
2023-07-28T05:07:42.156Z,77.10
2023-07-28T05:10:10.755Z,76.70
2023-07-28T05:12:40.033Z,75.90
2023-07-28T05:15:11.358Z,75.70
2023-07-28T05:17:39.558Z,75.30
2023-07-28T05:20:08.357Z,74.50
2023-07-28T05:22:36.226Z,74.30
2023-07-28T05:25:04.280Z,74.30
2023-07-28T05:27:32.075Z,74.20
2023-07-28T05:30:01.257Z,73.50
2023-07-28T05:32:29.152Z,73.10
2023-07-28T05:34:57.032Z,73.20
2023-07-28T05:37:24.924Z,73.30
2023-07-28T05:39:52.746Z,73.50
2023-07-28T05:42:20.701Z,73.60
2023-07-28T05:44:48.652Z,74.00
2023-07-28T05:47:17.801Z,73.70
2023-07-28T05:49:45.686Z,73.80
2023-07-28T05:52:13.512Z,73.60
2023-07-28T05:54:41.338Z,73.50
2023-07-28T05:57:09.406Z,73.80
2023-07-28T05:59:37.230Z,73.80
2023-07-28T06:02:05.342Z,73.60
2023-07-28T06:04:34.486Z,73.60
2023-07-28T06:07:02.312Z,73.70
2023-07-28T06:09:30.253Z,72.80
2023-07-28T06:11:58.095Z,73.20
2023-07-28T06:14:25.944Z,74.10
2023-07-28T06:16:53.824Z,74.60
2023-07-28T06:19:24.986Z,75.10
2023-07-28T06:21:54.509Z,75.10
2023-07-28T06:24:22.359Z,75.00
2023-07-28T06:26:51.438Z,74.70
2023-07-28T06:29:19.343Z,75.10
2023-07-28T06:31:47.192Z,74.30
2023-07-28T06:34:15.025Z,75.20
2023-07-28T06:36:42.890Z,74.30
2023-07-28T06:39:12.055Z,74.20
2023-07-28T06:41:39.868Z,74.30
2023-07-28T06:44:09.356Z,74.10
2023-07-28T06:46:37.322Z,73.30
2023-07-28T06:49:05.206Z,73.50
2023-07-28T06:51:33.576Z,72.90
2023-07-28T06:54:02.040Z,71.20
2023-07-28T06:56:31.212Z,70.20
2023-07-28T06:59:12.482Z,70.10
2023-07-28T07:01:41.948Z,69.40
2023-07-28T07:04:09.784Z,69.70
2023-07-28T07:06:37.612Z,67.00
2023-07-28T07:09:06.675Z,66.80
2023-07-28T07:11:36.631Z,65.80
2023-07-28T07:14:05.882Z,65.90
2023-07-28T07:16:34.250Z,66.50
2023-07-28T07:19:02.131Z,67.70
2023-07-28T07:21:30.549Z,68.00
2023-07-28T07:23:58.485Z,67.50
2023-07-28T07:26:26.355Z,67.80
2023-07-28T07:28:55.555Z,67.10
2023-07-28T07:31:23.525Z,66.50
2023-07-28T07:33:52.109Z,66.60
2023-07-28T07:36:21.635Z,67.00
2023-07-28T07:38:50.282Z,66.50
2023-07-28T07:41:21.008Z,67.10
2023-07-28T07:43:49.276Z,66.80
2023-07-28T07:46:20.426Z,66.80
2023-07-28T07:48:49.073Z,66.50
2023-07-28T07:51:17.502Z,67.20
2023-07-28T07:53:45.465Z,67.60
2023-07-28T07:56:13.385Z,67.10
2023-07-28T07:58:41.340Z,66.40
2023-07-28T08:01:09.273Z,65.60
2023-07-28T08:03:38.960Z,64.90
2023-07-28T08:06:06.796Z,64.30
2023-07-28T08:08:34.618Z,65.10
2023-07-28T08:11:03.509Z,65.70
2023-07-28T08:13:31.362Z,65.50
2023-07-28T08:15:59.433Z,64.70
2023-07-28T08:18:27.443Z,64.00
2023-07-28T08:20:56.673Z,61.60
2023-07-28T08:23:24.508Z,59.80
2023-07-28T08:25:52.384Z,59.30
2023-07-28T08:28:20.217Z,57.70
2023-07-28T08:30:57.221Z,54.90
2023-07-28T08:33:25.157Z,55.70
2023-07-28T08:35:53.161Z,56.40
2023-07-28T08:38:22.352Z,55.80
2023-07-28T08:40:50.211Z,57.80
2023-07-28T08:43:18.373Z,57.40
2023-07-28T08:45:46.185Z,57.90
2023-07-28T08:48:14.205Z,56.60
2023-07-28T08:50:42.521Z,58.30
2023-07-28T08:53:10.998Z,59.50
2023-07-28T08:55:40.140Z,60.10
2023-07-28T08:58:18.316Z,59.20
2023-07-28T09:00:46.339Z,57.80
2023-07-28T09:03:14.364Z,55.30
2023-07-28T09:05:42.445Z,56.90
2023-07-28T09:08:10.696Z,56.00
2023-07-28T09:10:47.621Z,53.50
2023-07-28T09:13:18.046Z,55.00
2023-07-28T09:15:46.381Z,52.70
2023-07-28T09:18:15.324Z,52.30
2023-07-28T09:20:44.610Z,51.50
2023-07-28T09:23:17.321Z,53.80
2023-07-28T09:25:46.793Z,53.20
2023-07-28T09:28:14.838Z,52.30
2023-07-28T09:30:48.457Z,51.90
2023-07-28T09:33:30.229Z,53.80
2023-07-28T09:35:58.406Z,53.50
2023-07-28T09:38:30.469Z,53.20
2023-07-28T09:41:00.901Z,53.90
2023-07-28T09:43:28.746Z,54.10
2023-07-28T09:45:57.773Z,53.20
2023-07-28T09:48:27.937Z,52.90
2023-07-28T09:50:55.801Z,52.20
2023-07-28T09:53:25.906Z,53.90
2023-07-28T09:55:53.786Z,52.10
2023-07-28T09:58:24.869Z,52.60
2023-07-28T10:00:52.966Z,51.90
2023-07-28T10:03:21.533Z,53.70
2023-07-28T10:05:49.959Z,52.40
2023-07-28T10:08:18.368Z,52.10
2023-07-28T10:10:46.878Z,51.40
2023-07-28T10:13:23.490Z,50.60
2023-07-28T10:15:52.331Z,51.50
2023-07-28T10:18:23.210Z,53.40
2023-07-28T10:20:52.241Z,51.90
2023-07-28T10:23:23.180Z,53.00
2023-07-28T10:25:59.941Z,52.40
2023-07-28T10:28:32.333Z,53.00
2023-07-28T10:31:02.561Z,52.10
2023-07-28T10:33:34.395Z,50.50
2023-07-28T10:36:15.021Z,50.90
2023-07-28T10:38:44.688Z,50.40
2023-07-28T10:41:16.042Z,48.50
2023-07-28T10:43:45.914Z,49.60
2023-07-28T10:46:16.637Z,50.60
2023-07-28T10:48:45.875Z,51.40
2023-07-28T10:51:14.262Z,51.40
2023-07-28T10:53:42.093Z,51.90
2023-07-28T10:56:12.078Z,52.40
2023-07-28T10:58:40.185Z,53.20
2023-07-28T11:01:09.416Z,52.60
2023-07-28T11:03:37.328Z,53.80
2023-07-28T11:06:07.152Z,53.60
2023-07-28T11:08:36.150Z,53.70
2023-07-28T11:11:06.433Z,54.00
2023-07-28T11:13:40.866Z,54.50
2023-07-28T11:16:11.827Z,54.30
2023-07-28T11:18:39.860Z,55.10
2023-07-28T11:21:07.675Z,55.10
2023-07-28T11:23:35.480Z,55.80
2023-07-28T11:26:03.478Z,56.10
2023-07-28T11:28:31.418Z,57.00
2023-07-28T11:31:01.012Z,54.70
2023-07-28T11:33:30.908Z,54.90
2023-07-28T11:35:58.870Z,54.40
2023-07-28T11:38:27.944Z,54.40
2023-07-28T11:40:56.352Z,53.50
2023-07-28T11:43:25.420Z,52.40
2023-07-28T11:45:53.265Z,51.40
2023-07-28T11:48:21.877Z,51.50
2023-07-28T11:50:54.504Z,51.10
2023-07-28T11:53:22.896Z,51.40
2023-07-28T11:55:50.817Z,51.30
2023-07-28T11:58:18.673Z,51.90
2023-07-28T12:00:46.961Z,52.10
2023-07-28T12:03:15.980Z,52.20
2023-07-28T12:08:38.037Z,52.90
2023-07-28T12:19:13.488Z,53.00
2023-07-28T12:21:43.430Z,52.30
2023-07-28T12:24:11.247Z,52.40
2023-07-28T12:26:40.776Z,52.80
2023-07-28T12:29:11.250Z,52.60
2023-07-28T12:34:10.858Z,52.50
2023-07-28T12:41:43.914Z,51.40
2023-07-28T12:44:16.284Z,50.70
2023-07-28T12:46:45.288Z,51.80
2023-07-28T12:51:57.904Z,53.30
2023-07-28T12:54:28.039Z,53.40
2023-07-28T12:59:28.106Z,51.70
2023-07-28T13:01:56.099Z,51.90
2023-07-28T13:04:24.008Z,52.70
2023-07-28T13:06:52.669Z,52.50
2023-07-28T13:14:23.373Z,52.00
2023-07-28T13:16:51.688Z,52.50
2023-07-28T13:19:19.565Z,53.10
2023-07-28T13:21:47.382Z,53.80
2023-07-28T13:24:15.207Z,55.60
2023-07-28T13:26:43.016Z,57.30
2023-07-28T13:29:12.185Z,58.20
2023-07-28T13:31:40.065Z,59.00
2023-07-28T13:34:08.453Z,59.30
2023-07-28T13:36:37.178Z,59.30
2023-07-28T13:39:05.478Z,58.30
2023-07-28T13:41:33.700Z,58.20
2023-07-28T13:44:03.268Z,58.30
2023-07-28T13:46:32.622Z,58.60
2023-07-28T13:49:07.870Z,58.40
2023-07-28T13:56:38.194Z,59.90
2023-07-28T13:59:06.212Z,61.20
2023-07-28T14:01:35.738Z,62.90
2023-07-28T14:04:03.941Z,66.00
2023-07-28T14:06:31.814Z,67.50
2023-07-28T14:08:59.618Z,65.80
2023-07-28T14:11:27.503Z,64.90
2023-07-28T14:13:55.318Z,64.70
2023-07-28T14:16:23.289Z,62.00
2023-07-28T14:18:52.535Z,61.20
2023-07-28T14:21:20.404Z,60.30
2023-07-28T14:23:48.240Z,58.90
2023-07-28T14:26:16.736Z,57.50
2023-07-28T14:28:45.191Z,55.40
2023-07-28T14:31:13.065Z,54.50
2023-07-28T14:33:40.868Z,54.30
2023-07-28T14:36:10.063Z,54.10
2023-07-28T14:38:37.883Z,53.10
2023-07-28T14:41:05.728Z,54.40
2023-07-28T14:43:33.578Z,55.90
2023-07-28T14:46:01.425Z,55.60
2023-07-28T14:48:29.274Z,55.80
2023-07-28T14:50:57.084Z,55.80
2023-07-28T14:53:34.167Z,56.70
2023-07-28T14:56:02.720Z,54.70
2023-07-28T14:58:31.399Z,54.20
2023-07-28T15:01:00.771Z,55.00
2023-07-28T15:03:30.303Z,54.70
2023-07-28T15:05:58.406Z,55.00
2023-07-28T15:08:26.340Z,56.30
2023-07-28T15:10:55.640Z,56.60
2023-07-28T15:13:23.459Z,56.90
2023-07-28T15:15:52.041Z,57.00
2023-07-28T15:18:19.960Z,57.50
2023-07-28T15:20:48.098Z,58.10
2023-07-28T15:23:15.927Z,58.60
2023-07-28T15:25:44.308Z,58.90
2023-07-28T15:28:14.677Z,58.90
2023-07-28T15:30:46.369Z,58.70
2023-07-28T15:33:14.696Z,59.20
2023-07-28T15:35:42.730Z,59.50
2023-07-28T15:38:10.543Z,60.60
2023-07-28T15:40:38.446Z,61.10
2023-07-28T15:43:06.343Z,60.40
2023-07-28T15:45:35.514Z,60.80
2023-07-28T15:48:03.422Z,62.60
2023-07-28T15:50:31.281Z,63.40
2023-07-28T15:52:59.143Z,64.50
2023-07-28T15:55:27.030Z,65.30
2023-07-28T15:57:54.866Z,66.70
2023-07-28T16:00:22.813Z,68.80
2023-07-28T16:02:52.349Z,68.70
2023-07-28T16:05:20.525Z,70.80
2023-07-28T16:07:48.394Z,70.50
2023-07-28T16:10:16.356Z,69.20
2023-07-28T16:12:44.312Z,68.80
2023-07-28T16:15:12.249Z,68.10
2023-07-28T16:17:40.123Z,68.30
2023-07-28T16:20:10.676Z,68.00
2023-07-28T16:22:39.598Z,68.50
2023-07-28T16:25:07.966Z,69.50
2023-07-28T16:27:35.788Z,70.30
2023-07-28T16:30:07.429Z,71.40
2023-07-28T16:32:35.311Z,71.40
2023-07-28T16:35:03.229Z,72.40
2023-07-28T16:37:32.415Z,74.50
2023-07-28T16:40:00.774Z,75.00
2023-07-28T16:42:28.888Z,75.00
2023-07-28T16:44:56.716Z,75.80
2023-07-28T16:47:24.604Z,75.20
2023-07-28T16:49:52.423Z,75.90
2023-07-28T16:52:21.719Z,76.50
2023-07-28T16:54:50.882Z,78.30
2023-07-28T16:57:18.678Z,78.90
2023-07-28T16:59:46.508Z,80.50
2023-07-28T17:02:14.384Z,80.80
2023-07-28T17:04:48.759Z,82.50
2023-07-28T17:07:16.560Z,82.90
2023-07-28T17:09:44.791Z,84.40
2023-07-28T17:12:13.950Z,83.90
2023-07-28T17:14:41.789Z,85.50
2023-07-28T17:17:09.624Z,85.80
2023-07-28T17:19:37.446Z,86.30
2023-07-28T17:22:05.957Z,87.70
2023-07-28T17:24:34.166Z,87.30
2023-07-28T17:27:02.128Z,85.40
2023-07-28T17:29:31.288Z,85.80
2023-07-28T17:31:59.162Z,85.50
2023-07-28T17:34:28.987Z,85.20
2023-07-28T17:36:58.402Z,81.80
2023-07-28T17:39:26.297Z,82.80
2023-07-28T17:41:54.138Z,81.40
2023-07-28T17:44:22.118Z,80.60
2023-07-28T17:46:51.337Z,79.50
2023-07-28T17:49:19.194Z,80.50
2023-07-28T17:51:47.068Z,80.60
2023-07-28T17:54:15.313Z,81.00
2023-07-28T17:56:43.130Z,81.20
2023-07-28T17:59:10.989Z,81.40
2023-07-28T18:01:38.918Z,82.30
2023-07-28T18:04:08.285Z,82.80
2023-07-28T18:06:36.215Z,83.10
2023-07-28T18:09:04.093Z,82.60
2023-07-28T18:11:32.078Z,82.50
2023-07-28T18:13:59.914Z,83.00
2023-07-28T18:16:27.835Z,83.60
2023-07-28T18:18:55.692Z,81.90
2023-07-28T18:21:24.833Z,80.10
2023-07-28T18:23:52.639Z,79.90
2023-07-28T18:26:20.476Z,78.70
2023-07-28T18:28:48.654Z,78.80
2023-07-28T18:31:16.543Z,79.00
2023-07-28T18:33:44.365Z,79.30
2023-07-28T18:36:12.393Z,79.50
2023-07-28T18:38:41.619Z,80.50
2023-07-28T18:41:09.495Z,81.80
2023-07-28T18:43:37.338Z,83.10
2023-07-28T18:46:05.211Z,83.30
2023-07-28T18:48:33.235Z,83.90
2023-07-28T18:51:02.805Z,84.60
2023-07-28T18:53:30.724Z,84.80
2023-07-28T18:55:59.907Z,85.10
2023-07-28T18:58:27.786Z,85.10
2023-07-28T19:00:55.672Z,85.80
2023-07-28T19:03:24.703Z,86.40
2023-07-28T19:05:52.613Z,87.00
2023-07-28T19:08:20.447Z,87.80
2023-07-28T19:10:48.411Z,87.80
2023-07-28T19:13:17.672Z,88.10
2023-07-28T19:15:47.861Z,88.10
2023-07-28T19:18:16.209Z,88.30
2023-07-28T19:20:44.246Z,89.20
2023-07-28T19:23:12.110Z,89.80
2023-07-28T19:25:40.593Z,89.50
2023-07-28T19:28:08.771Z,90.20
2023-07-28T19:30:38.155Z,89.80
2023-07-28T19:33:06.092Z,90.40
2023-07-28T19:35:34.043Z,90.80
2023-07-28T19:38:01.898Z,90.60
2023-07-28T19:40:30.273Z,91.00
2023-07-28T19:42:58.121Z,90.90
2023-07-28T19:45:26.053Z,91.40
2023-07-28T19:48:10.582Z,91.50
2023-07-28T19:50:45.840Z,91.70
2023-07-28T19:53:14.447Z,92.40
2023-07-28T19:55:44.388Z,91.90
2023-07-28T19:58:13.472Z,91.80
2023-07-28T20:00:41.501Z,91.80
2023-07-28T20:03:10.789Z,91.70
2023-07-28T20:05:38.758Z,92.00
2023-07-28T20:08:36.155Z,91.50
2023-07-28T20:11:04.052Z,91.90
2023-07-28T20:13:31.881Z,91.60
2023-07-28T20:15:59.809Z,91.30
2023-07-28T20:18:29.053Z,91.10
2023-07-28T20:20:57.041Z,90.50
2023-07-28T20:23:24.987Z,90.60
2023-07-28T20:25:52.815Z,90.70
2023-07-28T20:28:20.676Z,90.30
2023-07-28T20:30:48.594Z,89.70
2023-07-28T20:33:16.646Z,89.70
2023-07-28T20:35:45.907Z,90.00
2023-07-28T20:38:13.755Z,89.90
2023-07-28T20:40:41.586Z,89.90
2023-07-28T20:43:09.512Z,90.30
2023-07-28T20:45:37.612Z,90.60
2023-07-28T20:48:05.991Z,89.90
2023-07-28T20:50:33.921Z,90.10
2023-07-28T20:53:03.127Z,90.30
2023-07-28T20:55:31.001Z,90.40
2023-07-28T20:58:02.332Z,90.20
2023-07-28T21:00:30.569Z,90.20
2023-07-28T21:03:00.399Z,90.00
2023-07-28T21:05:28.413Z,89.40
2023-07-28T21:07:56.284Z,89.40
2023-07-28T21:10:27.187Z,90.10
2023-07-28T21:12:55.061Z,89.60
2023-07-28T21:15:22.919Z,89.20
2023-07-28T21:17:50.796Z,89.20
2023-07-28T21:20:18.673Z,88.80
2023-07-28T21:22:46.513Z,88.10
2023-07-28T21:25:14.340Z,87.90
2023-07-28T21:27:43.480Z,87.70
2023-07-28T21:30:12.244Z,87.80
2023-07-28T21:32:40.250Z,87.80
2023-07-28T21:35:08.772Z,88.20
2023-07-28T21:37:36.663Z,87.60
2023-07-28T21:40:05.515Z,87.00
2023-07-28T21:42:33.386Z,86.60
2023-07-28T21:45:02.577Z,86.60
2023-07-28T21:47:30.466Z,86.90
2023-07-28T21:49:58.310Z,86.80
2023-07-28T21:52:26.190Z,86.60
2023-07-28T21:54:54.046Z,86.80
2023-07-28T21:57:22.024Z,86.50
2023-07-28T21:59:49.895Z,85.80
2023-07-28T22:02:20.155Z,85.50
2023-07-28T22:04:48.006Z,86.00
2023-07-28T22:07:16.655Z,85.90
2023-07-28T22:09:44.483Z,85.00
2023-07-28T22:12:12.302Z,84.80
2023-07-28T22:14:40.236Z,85.30
2023-07-28T22:17:08.123Z,86.30
2023-07-28T22:19:37.250Z,86.30
2023-07-28T22:22:05.186Z,86.00
2023-07-28T22:24:33.010Z,85.60
2023-07-28T22:27:01.125Z,85.80
2023-07-28T22:29:28.983Z,85.60
2023-07-28T22:31:56.878Z,86.00
2023-07-28T22:34:24.768Z,86.20
2023-07-28T22:36:53.939Z,86.70
2023-07-28T22:39:21.795Z,86.70
2023-07-28T22:41:49.593Z,86.70
2023-07-28T22:44:17.456Z,86.50
2023-07-28T22:46:45.282Z,86.70
2023-07-28T22:49:13.118Z,86.90
2023-07-28T22:51:40.987Z,86.80
2023-07-28T22:54:10.176Z,87.70
2023-07-28T22:56:38.253Z,88.00
2023-07-28T22:59:06.355Z,88.40
2023-07-28T23:01:34.198Z,89.20
2023-07-28T23:04:02.087Z,89.50
2023-07-28T23:06:29.916Z,89.50
2023-07-28T23:08:57.745Z,90.70
2023-07-28T23:11:26.912Z,90.70
2023-07-28T23:13:55.144Z,91.90
2023-07-28T23:16:23.014Z,92.00
2023-07-28T23:18:51.330Z,92.30
2023-07-28T23:21:19.227Z,92.20
2023-07-28T23:23:47.058Z,92.20
2023-07-28T23:26:14.900Z,91.60
2023-07-28T23:28:44.043Z,91.30
2023-07-28T23:31:13.353Z,90.50
2023-07-28T23:33:41.344Z,90.10
2023-07-28T23:36:09.827Z,89.00
2023-07-28T23:38:38.504Z,87.50
2023-07-28T23:41:07.001Z,86.60
2023-07-28T23:43:34.932Z,87.00
2023-07-28T23:46:04.273Z,88.10
2023-07-28T23:48:33.260Z,89.00
2023-07-28T23:51:01.128Z,89.80
2023-07-28T23:53:30.565Z,90.30
2023-07-28T23:55:58.765Z,91.40
2023-07-28T23:58:27.135Z,91.90
